sensor_id;sensor_type;location;lat;lon;timestamp;P1;durP1;ratioP1;P2;durP2;ratioP2
17449;SDS011;8842;51.244;7.102;2022-11-11T00:06:44;6.53;;;6.17;;
17449;SDS011;8842;51.244;7.102;2022-11-11T00:11:49;6.50;;;6.20;;
17449;SDS011;8842;51.244;7.102;2022-11-11T00:17:03;6.73;;;6.43;;
17449;SDS011;8842;51.244;7.102;2022-11-11T00:22:25;6.87;;;6.57;;
17449;SDS011;8842;51.244;7.102;2022-11-11T00:27:37;6.60;;;6.30;;
17449;SDS011;8842;51.244;7.102;2022-11-11T00:32:42;6.80;;;6.50;;
17449;SDS011;8842;51.244;7.102;2022-11-11T00:37:53;6.60;;;6.30;;
17449;SDS011;8842;51.244;7.102;2022-11-11T00:42:57;7.20;;;6.70;;
17449;SDS011;8842;51.244;7.102;2022-11-11T00:48:09;7.17;;;6.80;;
17449;SDS011;8842;51.244;7.102;2022-11-11T00:53:32;6.70;;;6.40;;
17449;SDS011;8842;51.244;7.102;2022-11-11T00:58:43;6.60;;;6.30;;
17449;SDS011;8842;51.244;7.102;2022-11-11T01:03:48;7.13;;;6.73;;
17449;SDS011;8842;51.244;7.102;2022-11-11T01:09:03;7.33;;;6.60;;
17449;SDS011;8842;51.244;7.102;2022-11-11T01:14:08;7.00;;;6.70;;
17449;SDS011;8842;51.244;7.102;2022-11-11T01:19:19;6.77;;;6.47;;
17449;SDS011;8842;51.244;7.102;2022-11-11T01:24:24;7.20;;;6.90;;
17449;SDS011;8842;51.244;7.102;2022-11-11T01:29:35;6.87;;;6.57;;
17449;SDS011;8842;51.244;7.102;2022-11-11T01:34:40;7.53;;;6.97;;
17449;SDS011;8842;51.244;7.102;2022-11-11T01:39:51;7.57;;;7.17;;
17449;SDS011;8842;51.244;7.102;2022-11-11T01:44:56;6.60;;;6.30;;
17449;SDS011;8842;51.244;7.102;2022-11-11T01:50:08;6.40;;;6.10;;
17449;SDS011;8842;51.244;7.102;2022-11-11T01:55:13;6.83;;;6.53;;
17449;SDS011;8842;51.244;7.102;2022-11-11T02:00:25;7.23;;;6.70;;
17449;SDS011;8842;51.244;7.102;2022-11-11T02:05:29;7.03;;;6.63;;
17449;SDS011;8842;51.244;7.102;2022-11-11T02:10:42;6.90;;;6.60;;
17449;SDS011;8842;51.244;7.102;2022-11-11T02:15:48;6.77;;;6.47;;
17449;SDS011;8842;51.244;7.102;2022-11-11T02:21:00;6.43;;;6.13;;
17449;SDS011;8842;51.244;7.102;2022-11-11T02:26:05;6.50;;;6.20;;
17449;SDS011;8842;51.244;7.102;2022-11-11T02:31:17;7.20;;;6.90;;
17449;SDS011;8842;51.244;7.102;2022-11-11T02:41:32;6.60;;;6.20;;
17449;SDS011;8842;51.244;7.102;2022-11-11T02:52:10;6.60;;;6.30;;
17449;SDS011;8842;51.244;7.102;2022-11-11T03:02:25;6.30;;;6.00;;
17449;SDS011;8842;51.244;7.102;2022-11-11T03:07:29;6.70;;;6.40;;
17449;SDS011;8842;51.244;7.102;2022-11-11T03:12:41;6.80;;;6.50;;
17449;SDS011;8842;51.244;7.102;2022-11-11T03:17:45;6.90;;;6.60;;
17449;SDS011;8842;51.244;7.102;2022-11-11T03:23:01;6.77;;;6.40;;
17449;SDS011;8842;51.244;7.102;2022-11-11T03:28:06;6.70;;;6.40;;
17449;SDS011;8842;51.244;7.102;2022-11-11T03:33:18;6.43;;;6.13;;
17449;SDS011;8842;51.244;7.102;2022-11-11T03:38:22;6.50;;;6.20;;
17449;SDS011;8842;51.244;7.102;2022-11-11T03:43:34;6.70;;;6.40;;
17449;SDS011;8842;51.244;7.102;2022-11-11T03:48:38;6.50;;;6.20;;
17449;SDS011;8842;51.244;7.102;2022-11-11T03:53:50;6.40;;;6.10;;
17449;SDS011;8842;51.244;7.102;2022-11-11T03:58:54;6.63;;;6.33;;
17449;SDS011;8842;51.244;7.102;2022-11-11T04:04:07;6.80;;;6.50;;
17449;SDS011;8842;51.244;7.102;2022-11-11T04:09:30;7.00;;;6.60;;
17449;SDS011;8842;51.244;7.102;2022-11-11T04:14:52;6.83;;;6.47;;
17449;SDS011;8842;51.244;7.102;2022-11-11T04:20:08;6.60;;;6.30;;
17449;SDS011;8842;51.244;7.102;2022-11-11T04:25:31;7.10;;;6.70;;
17449;SDS011;8842;51.244;7.102;2022-11-11T04:30:55;6.97;;;6.67;;
17449;SDS011;8842;51.244;7.102;2022-11-11T04:41:10;7.70;;;7.30;;
17449;SDS011;8842;51.244;7.102;2022-11-11T04:46:14;7.60;;;7.20;;
17449;SDS011;8842;51.244;7.102;2022-11-11T04:51:26;7.60;;;7.20;;
17449;SDS011;8842;51.244;7.102;2022-11-11T05:01:43;7.90;;;7.50;;
17449;SDS011;8842;51.244;7.102;2022-11-11T05:07:05;7.20;;;6.90;;
17449;SDS011;8842;51.244;7.102;2022-11-11T05:12:17;8.10;;;7.60;;
17449;SDS011;8842;51.244;7.102;2022-11-11T05:17:21;8.40;;;7.70;;
17449;SDS011;8842;51.244;7.102;2022-11-11T05:22:34;8.40;;;7.90;;
17449;SDS011;8842;51.244;7.102;2022-11-11T05:27:40;8.23;;;7.73;;
17449;SDS011;8842;51.244;7.102;2022-11-11T05:32:53;8.20;;;7.80;;
17449;SDS011;8842;51.244;7.102;2022-11-11T05:38:01;7.83;;;7.10;;
17449;SDS011;8842;51.244;7.102;2022-11-11T05:43:23;7.93;;;7.53;;
17449;SDS011;8842;51.244;7.102;2022-11-11T05:48:35;8.07;;;7.57;;
17449;SDS011;8842;51.244;7.102;2022-11-11T05:53:42;8.07;;;7.67;;
17449;SDS011;8842;51.244;7.102;2022-11-11T05:58:46;9.00;;;8.37;;
17449;SDS011;8842;51.244;7.102;2022-11-11T06:03:58;8.30;;;7.90;;
17449;SDS011;8842;51.244;7.102;2022-11-11T06:09:02;7.50;;;7.13;;
17449;SDS011;8842;51.244;7.102;2022-11-11T06:14:16;7.70;;;7.30;;
17449;SDS011;8842;51.244;7.102;2022-11-11T06:19:21;7.50;;;7.13;;
17449;SDS011;8842;51.244;7.102;2022-11-11T06:24:25;9.10;;;8.40;;
17449;SDS011;8842;51.244;7.102;2022-11-11T06:29:29;8.77;;;8.27;;
17449;SDS011;8842;51.244;7.102;2022-11-11T06:34:33;8.30;;;7.90;;
17449;SDS011;8842;51.244;7.102;2022-11-11T06:39:38;8.30;;;7.80;;
17449;SDS011;8842;51.244;7.102;2022-11-11T06:44:42;8.30;;;7.80;;
17449;SDS011;8842;51.244;7.102;2022-11-11T06:49:53;8.10;;;7.70;;
17449;SDS011;8842;51.244;7.102;2022-11-11T07:00:10;8.50;;;7.90;;
17449;SDS011;8842;51.244;7.102;2022-11-11T07:10:25;8.10;;;7.70;;
17449;SDS011;8842;51.244;7.102;2022-11-11T07:15:30;7.87;;;7.47;;
17449;SDS011;8842;51.244;7.102;2022-11-11T07:20:42;7.90;;;7.50;;
17449;SDS011;8842;51.244;7.102;2022-11-11T07:30:57;7.80;;;7.40;;
17449;SDS011;8842;51.244;7.102;2022-11-11T07:41:13;8.00;;;7.60;;
17449;SDS011;8842;51.244;7.102;2022-11-11T07:46:17;7.80;;;7.40;;
17449;SDS011;8842;51.244;7.102;2022-11-11T07:51:29;8.10;;;7.70;;
17449;SDS011;8842;51.244;7.102;2022-11-11T07:56:34;8.33;;;7.83;;
17449;SDS011;8842;51.244;7.102;2022-11-11T08:01:45;8.17;;;7.67;;
17449;SDS011;8842;51.244;7.102;2022-11-11T08:12:01;8.50;;;8.00;;
17449;SDS011;8842;51.244;7.102;2022-11-11T08:17:23;8.80;;;8.30;;
17449;SDS011;8842;51.244;7.102;2022-11-11T08:22:36;8.60;;;8.10;;
17449;SDS011;8842;51.244;7.102;2022-11-11T08:27:40;8.60;;;8.20;;
17449;SDS011;8842;51.244;7.102;2022-11-11T08:32:56;8.33;;;7.93;;
17449;SDS011;8842;51.244;7.102;2022-11-11T08:38:00;9.50;;;8.93;;
17449;SDS011;8842;51.244;7.102;2022-11-11T08:43:04;9.40;;;8.90;;
17449;SDS011;8842;51.244;7.102;2022-11-11T08:48:09;9.30;;;8.80;;
17449;SDS011;8842;51.244;7.102;2022-11-11T08:53:20;8.80;;;8.40;;
17449;SDS011;8842;51.244;7.102;2022-11-11T08:58:25;8.70;;;8.30;;
17449;SDS011;8842;51.244;7.102;2022-11-11T09:03:29;9.30;;;8.80;;
17449;SDS011;8842;51.244;7.102;2022-11-11T09:08:33;8.30;;;7.90;;
17449;SDS011;8842;51.244;7.102;2022-11-11T09:13:37;8.90;;;8.30;;
17449;SDS011;8842;51.244;7.102;2022-11-11T09:18:42;8.90;;;8.50;;
17449;SDS011;8842;51.244;7.102;2022-11-11T09:23:54;8.67;;;8.27;;
17449;SDS011;8842;51.244;7.102;2022-11-11T09:34:09;8.67;;;8.17;;
17449;SDS011;8842;51.244;7.102;2022-11-11T09:39:13;8.73;;;8.17;;
17449;SDS011;8842;51.244;7.102;2022-11-11T09:49:35;8.50;;;8.10;;
17449;SDS011;8842;51.244;7.102;2022-11-11T09:59:54;8.33;;;7.93;;
17449;SDS011;8842;51.244;7.102;2022-11-11T10:10:17;8.87;;;8.47;;
17449;SDS011;8842;51.244;7.102;2022-11-11T10:15:31;9.60;;;9.10;;
17449;SDS011;8842;51.244;7.102;2022-11-11T10:20:45;9.23;;;8.63;;
17449;SDS011;8842;51.244;7.102;2022-11-11T10:25:59;8.73;;;8.00;;
17449;SDS011;8842;51.244;7.102;2022-11-11T10:31:10;8.90;;;8.50;;
17449;SDS011;8842;51.244;7.102;2022-11-11T10:36:24;9.10;;;8.60;;
17449;SDS011;8842;51.244;7.102;2022-11-11T10:41:32;9.40;;;8.90;;
17449;SDS011;8842;51.244;7.102;2022-11-11T10:46:48;8.87;;;8.47;;
17449;SDS011;8842;51.244;7.102;2022-11-11T10:51:56;8.80;;;8.40;;
17449;SDS011;8842;51.244;7.102;2022-11-11T10:57:08;9.23;;;8.73;;
17449;SDS011;8842;51.244;7.102;2022-11-11T11:02:20;9.20;;;8.70;;
17449;SDS011;8842;51.244;7.102;2022-11-11T11:07:35;9.30;;;8.80;;
17449;SDS011;8842;51.244;7.102;2022-11-11T11:17:53;8.97;;;8.57;;
17449;SDS011;8842;51.244;7.102;2022-11-11T11:23:00;8.60;;;8.20;;
17449;SDS011;8842;51.244;7.102;2022-11-11T11:28:06;8.90;;;8.50;;
17449;SDS011;8842;51.244;7.102;2022-11-11T11:33:12;8.90;;;8.50;;
17449;SDS011;8842;51.244;7.102;2022-11-11T11:38:17;9.60;;;9.10;;
17449;SDS011;8842;51.244;7.102;2022-11-11T11:43:32;10.57;;;9.97;;
17449;SDS011;8842;51.244;7.102;2022-11-11T11:48:41;8.40;;;8.00;;
17449;SDS011;8842;51.244;7.102;2022-11-11T11:54:01;8.37;;;7.97;;
17449;SDS011;8842;51.244;7.102;2022-11-11T11:59:12;8.10;;;7.70;;
17449;SDS011;8842;51.244;7.102;2022-11-11T12:04:32;8.60;;;8.20;;
17449;SDS011;8842;51.244;7.102;2022-11-11T12:09:57;9.60;;;9.10;;
17449;SDS011;8842;51.244;7.102;2022-11-11T12:15:23;9.93;;;9.43;;
17449;SDS011;8842;51.244;7.102;2022-11-11T12:20:39;9.57;;;9.07;;
17449;SDS011;8842;51.244;7.102;2022-11-11T12:25:49;9.63;;;9.13;;
17449;SDS011;8842;51.244;7.102;2022-11-11T12:31:05;9.40;;;8.90;;
17449;SDS011;8842;51.244;7.102;2022-11-11T12:36:16;10.03;;;9.53;;
17449;SDS011;8842;51.244;7.102;2022-11-11T12:41:34;9.90;;;9.40;;
17449;SDS011;8842;51.244;7.102;2022-11-11T12:46:52;9.80;;;9.30;;
17449;SDS011;8842;51.244;7.102;2022-11-11T12:52:12;9.90;;;9.40;;
17449;SDS011;8842;51.244;7.102;2022-11-11T12:57:22;9.80;;;9.30;;
17449;SDS011;8842;51.244;7.102;2022-11-11T13:02:52;9.47;;;8.97;;
17449;SDS011;8842;51.244;7.102;2022-11-11T13:13:43;9.97;;;9.47;;
17449;SDS011;8842;51.244;7.102;2022-11-11T13:18:57;9.70;;;9.20;;
17449;SDS011;8842;51.244;7.102;2022-11-11T13:24:08;9.80;;;9.30;;
17449;SDS011;8842;51.244;7.102;2022-11-11T13:29:23;9.67;;;9.17;;
17449;SDS011;8842;51.244;7.102;2022-11-11T13:34:36;9.33;;;8.83;;
17449;SDS011;8842;51.244;7.102;2022-11-11T13:44:55;8.50;;;8.10;;
17449;SDS011;8842;51.244;7.102;2022-11-11T13:50:02;9.10;;;8.60;;
17449;SDS011;8842;51.244;7.102;2022-11-11T13:55:22;8.70;;;8.30;;
17449;SDS011;8842;51.244;7.102;2022-11-11T14:00:31;8.80;;;8.40;;
17449;SDS011;8842;51.244;7.102;2022-11-11T14:05:44;8.50;;;8.00;;
17449;SDS011;8842;51.244;7.102;2022-11-11T14:10:49;8.70;;;8.30;;
17449;SDS011;8842;51.244;7.102;2022-11-11T14:15:56;9.20;;;8.60;;
17449;SDS011;8842;51.244;7.102;2022-11-11T14:21:01;7.90;;;7.50;;
17449;SDS011;8842;51.244;7.102;2022-11-11T14:26:18;8.10;;;7.70;;
17449;SDS011;8842;51.244;7.102;2022-11-11T14:31:35;8.40;;;8.00;;
17449;SDS011;8842;51.244;7.102;2022-11-11T14:37:01;8.43;;;8.03;;
17449;SDS011;8842;51.244;7.102;2022-11-11T14:47:46;8.70;;;8.30;;
17449;SDS011;8842;51.244;7.102;2022-11-11T14:52:58;8.40;;;8.00;;
17449;SDS011;8842;51.244;7.102;2022-11-11T14:58:12;8.10;;;7.70;;
17449;SDS011;8842;51.244;7.102;2022-11-11T15:08:29;10.20;;;8.80;;
17449;SDS011;8842;51.244;7.102;2022-11-11T15:13:53;7.53;;;7.23;;
17449;SDS011;8842;51.244;7.102;2022-11-11T15:19:14;8.10;;;7.70;;
17449;SDS011;8842;51.244;7.102;2022-11-11T15:24:33;8.10;;;7.70;;
17449;SDS011;8842;51.244;7.102;2022-11-11T15:29:55;7.70;;;7.30;;
17449;SDS011;8842;51.244;7.102;2022-11-11T15:40:17;7.60;;;7.20;;
17449;SDS011;8842;51.244;7.102;2022-11-11T15:50:34;7.73;;;7.33;;
17449;SDS011;8842;51.244;7.102;2022-11-11T15:55:39;6.10;;;5.80;;
17449;SDS011;8842;51.244;7.102;2022-11-11T16:00:51;7.60;;;7.20;;
17449;SDS011;8842;51.244;7.102;2022-11-11T16:05:55;7.30;;;7.00;;
17449;SDS011;8842;51.244;7.102;2022-11-11T16:11:09;7.60;;;7.20;;
17449;SDS011;8842;51.244;7.102;2022-11-11T16:16:18;13.33;;;7.10;;
17449;SDS011;8842;51.244;7.102;2022-11-11T16:21:32;7.40;;;7.10;;
17449;SDS011;8842;51.244;7.102;2022-11-11T16:31:50;7.30;;;7.00;;
17449;SDS011;8842;51.244;7.102;2022-11-11T16:36:57;8.20;;;7.80;;
17449;SDS011;8842;51.244;7.102;2022-11-11T16:42:02;7.77;;;7.37;;
17449;SDS011;8842;51.244;7.102;2022-11-11T16:47:32;8.10;;;7.70;;
17449;SDS011;8842;51.244;7.102;2022-11-11T16:57:54;7.10;;;6.80;;
17449;SDS011;8842;51.244;7.102;2022-11-11T17:03:09;7.63;;;7.27;;
17449;SDS011;8842;51.244;7.102;2022-11-11T17:08:29;7.80;;;7.40;;
17449;SDS011;8842;51.244;7.102;2022-11-11T17:13:35;8.40;;;8.00;;
17449;SDS011;8842;51.244;7.102;2022-11-11T17:18:47;8.00;;;7.60;;
17449;SDS011;8842;51.244;7.102;2022-11-11T17:29:02;7.80;;;7.40;;
17449;SDS011;8842;51.244;7.102;2022-11-11T17:34:07;6.50;;;6.20;;
17449;SDS011;8842;51.244;7.102;2022-11-11T17:39:19;6.33;;;6.03;;
17449;SDS011;8842;51.244;7.102;2022-11-11T17:44:32;8.03;;;7.63;;
17449;SDS011;8842;51.244;7.102;2022-11-11T17:49:36;7.00;;;6.70;;
17449;SDS011;8842;51.244;7.102;2022-11-11T17:54:41;7.30;;;7.00;;
17449;SDS011;8842;51.244;7.102;2022-11-11T17:59:45;7.43;;;7.03;;
17449;SDS011;8842;51.244;7.102;2022-11-11T18:04:49;7.00;;;6.70;;
17449;SDS011;8842;51.244;7.102;2022-11-11T18:10:01;7.03;;;6.73;;
17449;SDS011;8842;51.244;7.102;2022-11-11T18:15:06;7.70;;;7.20;;
17449;SDS011;8842;51.244;7.102;2022-11-11T18:20:19;7.30;;;7.00;;
17449;SDS011;8842;51.244;7.102;2022-11-11T18:25:23;7.30;;;7.00;;
17449;SDS011;8842;51.244;7.102;2022-11-11T18:30:50;7.73;;;7.33;;
17449;SDS011;8842;51.244;7.102;2022-11-11T18:35:54;7.30;;;7.00;;
17449;SDS011;8842;51.244;7.102;2022-11-11T18:41:02;7.93;;;7.53;;
17449;SDS011;8842;51.244;7.102;2022-11-11T18:46:16;7.43;;;7.13;;
17449;SDS011;8842;51.244;7.102;2022-11-11T18:51:21;7.70;;;7.30;;
17449;SDS011;8842;51.244;7.102;2022-11-11T18:56:34;7.83;;;7.43;;
17449;SDS011;8842;51.244;7.102;2022-11-11T19:01:39;7.47;;;7.17;;
17449;SDS011;8842;51.244;7.102;2022-11-11T19:06:54;7.80;;;7.30;;
17449;SDS011;8842;51.244;7.102;2022-11-11T19:11:59;6.90;;;6.60;;
17449;SDS011;8842;51.244;7.102;2022-11-11T19:17:04;6.60;;;6.30;;
17449;SDS011;8842;51.244;7.102;2022-11-11T19:22:15;7.20;;;6.90;;
17449;SDS011;8842;51.244;7.102;2022-11-11T19:32:31;6.90;;;6.60;;
17449;SDS011;8842;51.244;7.102;2022-11-11T19:37:35;6.90;;;6.60;;
17449;SDS011;8842;51.244;7.102;2022-11-11T19:42:39;7.20;;;6.90;;
17449;SDS011;8842;51.244;7.102;2022-11-11T19:47:51;6.90;;;6.60;;
17449;SDS011;8842;51.244;7.102;2022-11-11T19:52:55;6.70;;;6.40;;
17449;SDS011;8842;51.244;7.102;2022-11-11T19:58:07;6.83;;;6.53;;
17449;SDS011;8842;51.244;7.102;2022-11-11T20:03:12;7.17;;;6.87;;
17449;SDS011;8842;51.244;7.102;2022-11-11T20:08:24;6.87;;;6.57;;
17449;SDS011;8842;51.244;7.102;2022-11-11T20:13:28;7.37;;;7.03;;
17449;SDS011;8842;51.244;7.102;2022-11-11T20:18:40;8.03;;;7.63;;
17449;SDS011;8842;51.244;7.102;2022-11-11T20:23:44;7.20;;;6.90;;
17449;SDS011;8842;51.244;7.102;2022-11-11T20:28:56;6.90;;;6.60;;
17449;SDS011;8842;51.244;7.102;2022-11-11T20:34:01;7.00;;;6.70;;
17449;SDS011;8842;51.244;7.102;2022-11-11T20:39:13;6.77;;;6.47;;
17449;SDS011;8842;51.244;7.102;2022-11-11T20:44:17;6.90;;;6.60;;
17449;SDS011;8842;51.244;7.102;2022-11-11T20:49:21;7.47;;;7.07;;
17449;SDS011;8842;51.244;7.102;2022-11-11T20:54:33;7.00;;;6.70;;
17449;SDS011;8842;51.244;7.102;2022-11-11T20:59:45;7.10;;;6.80;;
17449;SDS011;8842;51.244;7.102;2022-11-11T21:04:49;7.43;;;6.90;;
17449;SDS011;8842;51.244;7.102;2022-11-11T21:10:01;7.47;;;7.17;;
17449;SDS011;8842;51.244;7.102;2022-11-11T21:15:07;7.70;;;7.30;;
17449;SDS011;8842;51.244;7.102;2022-11-11T21:20:25;8.07;;;7.53;;
17449;SDS011;8842;51.244;7.102;2022-11-11T21:25:30;7.40;;;7.00;;
17449;SDS011;8842;51.244;7.102;2022-11-11T21:30:35;7.37;;;7.03;;
17449;SDS011;8842;51.244;7.102;2022-11-11T21:35:39;6.90;;;6.60;;
17449;SDS011;8842;51.244;7.102;2022-11-11T21:40:52;7.10;;;6.80;;
17449;SDS011;8842;51.244;7.102;2022-11-11T21:46:01;7.50;;;7.10;;
17449;SDS011;8842;51.244;7.102;2022-11-11T21:51:08;7.20;;;6.90;;
17449;SDS011;8842;51.244;7.102;2022-11-11T21:56:20;7.10;;;6.80;;
17449;SDS011;8842;51.244;7.102;2022-11-11T22:01:25;7.13;;;6.83;;
17449;SDS011;8842;51.244;7.102;2022-11-11T22:06:40;7.13;;;6.80;;
17449;SDS011;8842;51.244;7.102;2022-11-11T22:11:44;7.13;;;6.83;;
17449;SDS011;8842;51.244;7.102;2022-11-11T22:16:56;6.90;;;6.60;;
17449;SDS011;8842;51.244;7.102;2022-11-11T22:22:00;6.97;;;6.67;;
17449;SDS011;8842;51.244;7.102;2022-11-11T22:27:12;6.93;;;6.63;;
17449;SDS011;8842;51.244;7.102;2022-11-11T22:32:16;6.80;;;6.50;;
17449;SDS011;8842;51.244;7.102;2022-11-11T22:37:28;6.80;;;6.50;;
17449;SDS011;8842;51.244;7.102;2022-11-11T22:42:32;6.90;;;6.60;;
17449;SDS011;8842;51.244;7.102;2022-11-11T22:47:44;6.60;;;6.30;;
17449;SDS011;8842;51.244;7.102;2022-11-11T22:52:48;6.50;;;6.20;;
17449;SDS011;8842;51.244;7.102;2022-11-11T22:58:03;6.50;;;6.20;;
17449;SDS011;8842;51.244;7.102;2022-11-11T23:03:07;6.50;;;6.20;;
17449;SDS011;8842;51.244;7.102;2022-11-11T23:08:12;6.27;;;5.97;;
17449;SDS011;8842;51.244;7.102;2022-11-11T23:13:23;6.70;;;6.40;;
17449;SDS011;8842;51.244;7.102;2022-11-11T23:18:28;6.30;;;6.00;;
17449;SDS011;8842;51.244;7.102;2022-11-11T23:23:41;6.10;;;5.80;;
17449;SDS011;8842;51.244;7.102;2022-11-11T23:28:46;6.10;;;5.80;;
17449;SDS011;8842;51.244;7.102;2022-11-11T23:33:58;6.30;;;6.00;;
17449;SDS011;8842;51.244;7.102;2022-11-11T23:44:15;6.20;;;5.90;;
17449;SDS011;8842;51.244;7.102;2022-11-11T23:54:30;6.10;;;5.80;;
17449;SDS011;8842;51.244;7.102;2022-11-11T23:59:34;6.23;;;5.93;;
